Time;durP1;ratioP1;P1;durP2;ratioP2;P2;SDS_P1;SDS_P2;PMS_P1;PMS_P2;Temp;Humidity;BMP_temperature;BMP_pressure;BME280_temperature;BME280_humidity;BME280_pressure;Samples;Min_cycle;Max_cycle;Signal;HPM_P1;HPM_P2
2022/04/19 00:01:11;;;;;;;9.77;2.40;;;12.50;63.40;;;;;;5087961;28;20110;-67
2022/04/19 00:03:37;;;;;;;10.90;2.10;;;12.50;63.80;;;;;;5087383;28;20111;-67
2022/04/19 00:06:06;;;;;;;8.70;2.42;;;12.40;63.80;;;;;;5087874;28;20046;-67
2022/04/19 00:08:32;;;;;;;8.55;2.38;;;12.40;63.90;;;;;;5086310;28;20158;-66
2022/04/19 00:10:59;;;;;;;10.18;2.58;;;12.40;64.20;;;;;;5077810;28;20095;-66
2022/04/19 00:13:25;;;;;;;10.40;2.63;;;12.40;64.20;;;;;;5086569;28;20039;-67
2022/04/19 00:15:50;;;;;;;10.52;2.47;;;12.40;64.30;;;;;;5088243;28;20036;-67
2022/04/19 00:18:16;;;;;;;11.35;2.45;;;12.40;64.50;;;;;;5086041;28;20611;-66
2022/04/19 00:20:42;;;;;;;8.00;2.50;;;12.40;64.40;;;;;;5084392;28;20017;-67
2022/04/19 00:23:15;;;;;;;6.43;2.10;;;12.40;64.10;;;;;;5085723;28;20414;-67
2022/04/19 00:25:47;;;;;;;6.63;2.00;;;12.30;63.90;;;;;;5087192;28;20107;-68
2022/04/19 00:28:14;;;;;;;10.63;2.83;;;12.30;63.60;;;;;;5086501;28;20024;-66
2022/04/19 00:30:40;;;;;;;8.90;2.05;;;12.20;63.60;;;;;;5086567;28;20113;-67
2022/04/19 00:33:07;;;;;;;12.13;2.30;;;12.20;63.90;;;;;;5083814;28;20039;-67
2022/04/19 00:35:33;;;;;;;6.88;2.55;;;12.20;63.90;;;;;;5080402;28;20055;-67
2022/04/19 00:38:00;;;;;;;8.25;1.92;;;12.10;63.70;;;;;;5083439;28;20027;-67
2022/04/19 00:40:27;;;;;;;7.13;2.10;;;12.10;63.70;;;;;;5084618;28;20043;-67
2022/04/19 00:42:55;;;;;;;8.82;2.08;;;12.00;64.00;;;;;;5078482;28;20031;-68
2022/04/19 00:45:25;;;;;;;9.73;2.13;;;12.00;64.20;;;;;;5076177;28;20024;-67
2022/04/19 00:47:52;;;;;;;7.70;2.10;;;11.90;64.40;;;;;;5081972;28;20095;-67
2022/04/19 00:50:18;;;;;;;9.57;2.28;;;11.90;64.50;;;;;;5087189;28;20116;-67
2022/04/19 00:52:45;;;;;;;6.28;2.13;;;11.90;64.60;;;;;;5074132;28;20029;-67
2022/04/19 00:55:12;;;;;;;6.35;2.13;;;11.90;64.80;;;;;;5089655;28;20063;-67
2022/04/19 00:57:39;;;;;;;8.32;2.22;;;11.80;64.60;;;;;;5084999;28;20028;-67
2022/04/19 01:00:08;;;;;;;9.65;2.35;;;11.80;64.70;;;;;;5080798;28;20154;-67
2022/04/19 01:02:36;;;;;;;10.82;2.53;;;11.80;64.70;;;;;;5082397;28;20111;-67
2022/04/19 01:05:03;;;;;;;6.38;2.13;;;11.80;64.90;;;;;;5080087;28;20498;-67
2022/04/19 01:07:29;;;;;;;6.30;1.85;;;11.70;65.00;;;;;;5085773;28;20403;-67
2022/04/19 01:09:55;;;;;;;8.82;2.20;;;11.70;65.00;;;;;;5075625;28;20039;-67
2022/04/19 01:15:09;;;;;;;8.13;2.00;;;11.70;65.40;;;;;;5082700;28;20060;-67
2022/04/19 01:17:39;;;;;;;6.85;2.05;;;11.70;65.60;;;;;;5082090;28;20031;-67
2022/04/19 01:20:09;;;;;;;11.00;2.50;;;11.70;65.80;;;;;;5087795;28;20020;-67
2022/04/19 01:22:39;;;;;;;6.78;2.28;;;11.70;66.00;;;;;;5088115;28;20486;-67
2022/04/19 01:25:06;;;;;;;7.63;2.42;;;11.80;66.00;;;;;;5081944;28;20035;-67
2022/04/19 01:27:33;;;;;;;8.57;2.45;;;11.70;66.00;;;;;;5079803;28;20028;-67
2022/04/19 01:30:02;;;;;;;8.98;2.42;;;11.70;66.20;;;;;;5084550;28;20063;-67
2022/04/19 01:32:28;;;;;;;8.32;2.10;;;11.70;66.20;;;;;;5082235;28;20024;-67
2022/04/19 01:35:10;;;;;;;6.03;2.10;;;11.70;66.20;;;;;;5080940;28;20487;-67
2022/04/19 01:37:37;;;;;;;9.02;2.20;;;11.70;66.10;;;;;;5077480;28;20036;-67
2022/04/19 01:40:17;;;;;;;7.35;2.10;;;11.70;66.10;;;;;;5085692;28;20032;-67
2022/04/19 01:42:47;;;;;;;7.55;2.30;;;11.60;65.90;;;;;;5078391;28;20494;-67
2022/04/19 01:45:14;;;;;;;7.10;2.50;;;11.50;65.40;;;;;;5079255;28;20509;-67
2022/04/19 01:47:40;;;;;;;6.13;2.22;;;11.50;65.40;;;;;;5081081;28;20266;-67
2022/04/19 01:50:11;;;;;;;6.75;2.40;;;11.50;65.60;;;;;;5085942;28;20043;-67
2022/04/19 01:52:38;;;;;;;7.30;2.30;;;11.40;65.80;;;;;;5086683;28;20034;-67
2022/04/19 01:55:09;;;;;;;6.50;2.20;;;11.40;65.70;;;;;;5075250;28;20109;-67
2022/04/19 01:57:36;;;;;;;8.40;2.50;;;11.40;65.90;;;;;;5086609;28;20395;-67
2022/04/19 02:00:05;;;;;;;7.18;2.25;;;11.30;66.10;;;;;;5083979;28;20032;-67
2022/04/19 02:02:32;;;;;;;6.95;2.45;;;11.30;66.30;;;;;;5085323;28;20024;-67
2022/04/19 02:04:57;;;;;;;7.30;2.35;;;11.30;66.50;;;;;;5083578;28;20020;-67
2022/04/19 02:07:23;;;;;;;7.43;2.38;;;11.20;66.40;;;;;;5085390;28;20040;-67
2022/04/19 02:09:49;;;;;;;7.63;2.40;;;11.20;66.40;;;;;;5074614;28;20428;-67
2022/04/19 02:12:15;;;;;;;5.95;2.15;;;11.10;66.30;;;;;;5071821;28;20112;-67
2022/04/19 02:14:41;;;;;;;6.85;2.65;;;11.10;66.50;;;;;;5084601;28;20071;-67
2022/04/19 02:17:11;;;;;;;5.60;2.30;;;11.00;66.80;;;;;;5083822;28;20036;-67
2022/04/19 02:19:37;;;;;;;8.32;2.50;;;11.10;68.10;;;;;;5083197;28;20741;-67
2022/04/19 02:22:09;;;;;;;6.97;2.30;;;11.00;67.00;;;;;;5087916;28;20031;-67
2022/04/19 02:24:35;;;;;;;5.93;2.45;;;11.10;67.00;;;;;;5076387;28;20115;-68
2022/04/19 02:27:02;;;;;;;6.75;2.40;;;11.00;67.00;;;;;;5083687;28;20047;-67
2022/04/19 02:29:28;;;;;;;5.85;2.38;;;11.00;67.10;;;;;;5082023;28;20399;-67
2022/04/19 02:31:54;;;;;;;7.80;2.20;;;11.00;67.30;;;;;;5083048;28;20054;-67
2022/04/19 02:34:20;;;;;;;4.82;2.28;;;10.90;67.40;;;;;;5074351;28;20101;-67
2022/04/19 02:36:46;;;;;;;6.82;2.42;;;10.90;67.70;;;;;;5084669;28;20028;-67
2022/04/19 02:39:12;;;;;;;5.47;2.13;;;10.90;67.70;;;;;;5074684;28;20454;-67
2022/04/19 02:41:38;;;;;;;8.57;2.10;;;10.80;67.50;;;;;;5081471;28;20107;-67
2022/04/19 02:44:06;;;;;;;6.13;2.00;;;10.80;67.50;;;;;;5084107;28;20099;-67
2022/04/19 02:46:33;;;;;;;5.78;1.98;;;10.80;67.80;;;;;;5082917;28;20028;-67
2022/04/19 02:48:59;;;;;;;8.25;2.35;;;10.80;68.00;;;;;;5077121;28;20066;-67
2022/04/19 02:51:25;;;;;;;5.70;1.83;;;10.70;67.90;;;;;;5084673;28;20024;-67
2022/04/19 02:53:51;;;;;;;3.95;1.70;;;10.70;67.90;;;;;;5078568;28;20047;-67
2022/04/19 02:56:17;;;;;;;3.47;1.60;;;10.70;67.90;;;;;;5081477;28;20074;-67
2022/04/19 02:58:46;;;;;;;4.35;1.95;;;10.70;68.00;;;;;;5076183;28;20107;-67
2022/04/19 03:01:12;;;;;;;4.72;1.73;;;10.70;68.10;;;;;;5088377;28;20089;-67
2022/04/19 03:03:37;;;;;;;4.18;1.95;;;10.70;68.20;;;;;;5073157;28;20024;-67
2022/04/19 03:06:03;;;;;;;7.60;2.00;;;10.60;68.10;;;;;;5079772;28;20533;-67
2022/04/19 03:08:32;;;;;;;4.30;1.80;;;10.60;67.90;;;;;;5085378;28;20122;-67
2022/04/19 03:10:58;;;;;;;4.93;1.90;;;10.60;67.70;;;;;;5083798;28;20028;-67
2022/04/19 03:13:25;;;;;;;4.15;1.90;;;10.60;67.70;;;;;;5084394;28;20020;-67
2022/04/19 03:15:50;;;;;;;3.90;1.65;;;10.50;67.60;;;;;;5083973;28;20062;-67
2022/04/19 03:18:16;;;;;;;4.20;2.17;;;10.50;67.60;;;;;;5083076;28;20506;-67
2022/04/19 03:20:45;;;;;;;3.65;1.90;;;10.40;67.60;;;;;;5082902;28;20031;-67
2022/04/19 03:28:40;;;;;;;3.55;1.80;;;10.40;67.40;;;;;;5079570;28;20071;-67
2022/04/19 03:31:07;;;;;;;4.28;1.83;;;10.30;67.30;;;;;;5084131;28;20035;-67
2022/04/19 03:33:36;;;;;;;4.10;1.88;;;10.30;67.50;;;;;;5072320;28;20029;-67
2022/04/19 03:36:02;;;;;;;3.03;1.60;;;10.20;67.50;;;;;;5077679;28;20054;-67
2022/04/19 03:38:28;;;;;;;3.58;1.50;;;10.20;67.70;;;;;;5085588;28;20031;-67
2022/04/19 03:40:54;;;;;;;3.40;1.70;;;10.20;67.80;;;;;;5069774;28;20024;-67
2022/04/19 03:43:20;;;;;;;4.03;1.92;;;10.10;67.90;;;;;;5071961;28;20399;-66
2022/04/19 03:45:45;;;;;;;5.22;2.50;;;10.10;67.90;;;;;;5083352;28;20475;-67
2022/04/19 03:48:15;;;;;;;7.60;2.75;;;10.10;67.80;;;;;;5081871;28;20096;-67
2022/04/19 03:50:41;;;;;;;6.75;2.97;;;10.10;67.70;;;;;;5081191;28;20120;-67
2022/04/19 03:53:08;;;;;;;14.70;3.00;;;10.10;67.60;;;;;;5086373;28;20113;-67
2022/04/19 03:55:34;;;;;;;9.38;2.80;;;10.10;67.40;;;;;;5078642;28;20048;-67
2022/04/19 03:58:02;;;;;;;9.57;2.58;;;10.00;67.40;;;;;;5082932;28;20418;-66
2022/04/19 04:00:27;;;;;;;5.07;2.38;;;10.00;67.50;;;;;;5077218;28;20028;-66
2022/04/19 04:02:53;;;;;;;5.75;2.50;;;10.00;67.70;;;;;;5081423;28;20090;-68
2022/04/19 04:05:19;;;;;;;7.72;2.47;;;9.90;67.70;;;;;;5079939;28;20467;-67
2022/04/19 04:07:45;;;;;;;5.78;2.53;;;9.90;67.80;;;;;;5080224;28;20017;-67
2022/04/19 04:10:10;;;;;;;15.85;2.88;;;9.90;68.00;;;;;;5073041;28;20029;-67
2022/04/19 04:12:36;;;;;;;11.63;3.17;;;9.90;67.90;;;;;;5086395;28;20089;-67
2022/04/19 04:15:02;;;;;;;21.48;3.10;;;9.90;68.00;;;;;;5082822;28;20047;-67
2022/04/19 04:17:28;;;;;;;10.93;3.20;;;9.80;68.30;;;;;;5079430;28;20021;-67
2022/04/19 04:19:54;;;;;;;15.85;3.38;;;9.90;68.50;;;;;;5084434;28;20029;-67
2022/04/19 04:22:20;;;;;;;7.45;2.80;;;9.80;68.50;;;;;;5083675;28;20017;-66
2022/04/19 04:24:46;;;;;;;21.42;3.22;;;9.80;68.60;;;;;;5084354;28;20042;-67
2022/04/19 04:27:11;;;;;;;15.98;3.13;;;9.80;68.80;;;;;;5076467;28;20036;-66
2022/04/19 04:29:37;;;;;;;16.45;3.35;;;9.80;68.90;;;;;;5081025;28;20036;-67
2022/04/19 04:32:04;;;;;;;7.28;3.03;;;9.70;68.80;;;;;;5082315;28;20035;-67
2022/04/19 04:34:30;;;;;;;6.75;2.58;;;9.70;68.80;;;;;;5082608;28;20051;-66
2022/04/19 04:36:56;;;;;;;16.33;2.90;;;9.70;68.90;;;;;;5085280;28;20028;-67
2022/04/19 04:39:21;;;;;;;20.48;2.65;;;9.70;69.00;;;;;;5074976;28;20123;-67
2022/04/19 04:41:47;;;;;;;8.30;2.80;;;9.60;68.80;;;;;;5082752;28;20513;-67
2022/04/19 04:44:13;;;;;;;6.70;2.70;;;9.60;68.60;;;;;;5086666;28;20036;-66
2022/04/19 04:49:41;;;;;;;18.48;2.90;;;9.50;68.70;;;;;;5082085;28;20575;-67
2022/04/19 04:52:12;;;;;;;26.45;3.10;;;9.50;69.00;;;;;;5089478;28;20039;-67
2022/04/19 04:54:40;;;;;;;12.40;2.70;;;9.50;69.40;;;;;;5079600;28;20101;-67
2022/04/19 04:57:07;;;;;;;14.20;3.00;;;9.50;69.70;;;;;;5085106;28;20024;-67
2022/04/19 04:59:33;;;;;;;12.93;2.75;;;9.50;69.80;;;;;;5084109;28;20199;-67
2022/04/19 05:02:00;;;;;;;21.23;2.67;;;9.50;69.90;;;;;;5082543;28;20047;-67
2022/04/19 05:04:26;;;;;;;13.85;2.92;;;9.50;70.00;;;;;;5087390;28;20020;-67
2022/04/19 05:06:52;;;;;;;6.60;2.60;;;9.50;70.10;;;;;;5089920;28;20040;-67
2022/04/19 05:09:17;;;;;;;13.68;2.75;;;9.50;70.10;;;;;;5086799;28;20060;-67
2022/04/19 05:11:46;;;;;;;4.47;2.40;;;9.50;69.90;;;;;;5085635;28;20051;-67
2022/04/19 05:14:16;;;;;;;4.35;2.63;;;9.50;69.80;;;;;;5082408;28;20482;-67
2022/04/19 05:16:42;;;;;;;5.32;2.63;;;9.40;69.90;;;;;;5080642;28;20028;-65
2022/04/19 05:19:11;;;;;;;8.35;2.70;;;9.40;69.80;;;;;;5085382;28;20571;-66
2022/04/19 05:21:40;;;;;;;4.85;2.60;;;9.50;70.00;;;;;;5082959;28;20047;-65
2022/04/19 05:24:08;;;;;;;7.75;2.80;;;9.50;70.20;;;;;;5081581;28;20035;-65
2022/04/19 05:26:34;;;;;;;4.93;2.70;;;9.50;70.30;;;;;;5087465;28;20043;-65
2022/04/19 05:29:00;;;;;;;7.72;2.70;;;9.70;70.50;;;;;;5085926;28;20028;-65
2022/04/19 05:31:26;;;;;;;5.78;2.90;;;9.50;70.50;;;;;;5077073;28;20031;-66
2022/04/19 05:33:51;;;;;;;9.82;2.75;;;9.60;70.60;;;;;;5089951;28;20048;-66
2022/04/19 05:36:17;;;;;;;6.22;2.72;;;9.70;70.60;;;;;;5085854;28;20043;-66
2022/04/19 05:38:43;;;;;;;5.18;2.60;;;9.70;70.40;;;;;;5085248;28;20024;-66
2022/04/19 05:41:10;;;;;;;7.25;2.90;;;9.80;70.40;;;;;;5085559;28;20020;-66
2022/04/19 05:43:36;;;;;;;4.55;2.40;;;9.80;70.60;;;;;;5071357;28;20073;-66
2022/04/19 05:46:03;;;;;;;5.35;2.50;;;9.90;70.80;;;;;;5085963;28;20108;-66
2022/04/19 05:48:30;;;;;;;5.68;2.45;;;9.90;70.90;;;;;;5081806;28;20032;-66
2022/04/19 05:50:56;;;;;;;5.82;2.72;;;10.00;71.00;;;;;;5078228;28;20043;-67
2022/04/19 05:53:22;;;;;;;5.63;2.83;;;10.00;71.10;;;;;;5084554;28;20024;-67
2022/04/19 05:55:47;;;;;;;6.70;2.70;;;10.10;71.50;;;;;;5075480;28;20044;-67
2022/04/19 05:58:14;;;;;;;5.93;2.53;;;10.10;71.90;;;;;;5078107;28;20024;-68
2022/04/19 06:00:39;;;;;;;5.28;2.70;;;10.10;71.70;;;;;;5083145;28;20037;-67
2022/04/19 06:05:49;;;;;;;4.78;2.53;;;10.20;71.30;;;;;;5076132;28;20039;-67
2022/04/19 06:08:19;;;;;;;7.78;2.90;;;10.20;71.50;;;;;;5079895;28;20024;-67
2022/04/19 06:10:45;;;;;;;5.10;2.83;;;10.30;72.20;;;;;;5083858;28;20032;-66
2022/04/19 06:13:11;;;;;;;7.40;3.00;;;10.30;72.30;;;;;;5073744;28;20029;-67
2022/04/19 06:15:37;;;;;;;5.97;2.90;;;10.30;72.40;;;;;;5076305;28;20051;-67
2022/04/19 06:18:04;;;;;;;6.50;3.25;;;10.40;72.40;;;;;;5072798;28;20027;-68
2022/04/19 06:20:30;;;;;;;6.03;2.65;;;10.40;72.60;;;;;;5081669;28;20024;-68
2022/04/19 06:22:56;;;;;;;8.15;2.80;;;10.60;71.60;;;;;;5076365;28;20113;-68
2022/04/19 06:25:22;;;;;;;7.10;2.63;;;11.00;70.10;;;;;;5087670;28;20482;-67
2022/04/19 06:27:49;;;;;;;6.32;2.95;;;11.50;67.50;;;;;;5084614;28;20039;-67
2022/04/19 06:30:14;;;;;;;8.75;3.20;;;12.20;65.30;;;;;;5080213;28;20095;-67
2022/04/19 06:32:42;;;;;;;6.53;2.83;;;12.90;62.90;;;;;;5080649;28;20123;-68
2022/04/19 06:35:11;;;;;;;6.82;2.90;;;13.50;60.90;;;;;;5080347;28;20052;-69
2022/04/19 06:37:37;;;;;;;9.88;3.03;;;14.20;59.10;;;;;;5081345;28;20058;-68
2022/04/19 06:40:06;;;;;;;6.88;2.95;;;14.70;57.40;;;;;;5077806;28;20406;-66
2022/04/19 06:42:32;;;;;;;8.23;3.08;;;15.30;56.10;;;;;;5081192;28;20054;-66
2022/04/19 06:44:58;;;;;;;8.73;3.08;;;15.70;54.90;;;;;;5079387;28;20040;-67
2022/04/19 06:47:26;;;;;;;6.82;2.88;;;15.90;54.40;;;;;;5083259;28;20024;-66
2022/04/19 06:49:57;;;;;;;8.80;3.10;;;16.00;54.80;;;;;;5072583;28;20028;-66
2022/04/19 06:52:23;;;;;;;8.73;2.70;;;16.10;55.30;;;;;;5084787;28;20113;-67
2022/04/19 06:54:49;;;;;;;9.80;2.63;;;16.00;55.50;;;;;;5088342;28;20040;-67
2022/04/19 06:57:15;;;;;;;9.38;2.50;;;15.90;56.90;;;;;;5075371;28;20027;-67
2022/04/19 06:59:41;;;;;;;9.15;2.75;;;15.80;58.30;;;;;;5072232;28;20029;-67
2022/04/19 07:02:07;;;;;;;8.90;2.80;;;15.70;59.40;;;;;;5082589;28;20032;-67
2022/04/19 07:04:33;;;;;;;11.00;2.78;;;15.80;59.90;;;;;;5069763;28;20428;-67
2022/04/19 07:06:59;;;;;;;9.57;2.90;;;15.90;60.00;;;;;;5073485;28;20043;-67
2022/04/19 07:09:26;;;;;;;10.82;3.47;;;16.00;60.50;;;;;;5072562;28;20027;-67
2022/04/19 07:11:52;;;;;;;10.70;3.00;;;16.10;59.30;;;;;;5072552;28;20024;-67
2022/04/19 07:14:18;;;;;;;8.65;2.95;;;16.30;59.10;;;;;;5071617;28;20459;-67
2022/04/19 07:16:44;;;;;;;10.68;2.60;;;16.40;58.40;;;;;;5070212;28;20041;-67
2022/04/19 07:19:10;;;;;;;10.68;3.60;;;16.60;58.10;;;;;;5087566;28;20498;-67
2022/04/19 07:27:04;;;;;;;9.15;2.15;;;17.20;57.30;;;;;;5071881;28;20082;-67
2022/04/19 07:29:30;;;;;;;10.38;2.15;;;17.40;55.90;;;;;;5072596;28;20031;-66
2022/04/19 07:31:56;;;;;;;8.95;2.20;;;17.50;55.30;;;;;;5076306;28;20057;-67
2022/04/19 07:34:22;;;;;;;9.85;2.47;;;17.60;55.00;;;;;;5075290;28;20490;-66
2022/04/19 07:36:48;;;;;;;8.27;2.22;;;17.80;54.60;;;;;;5080282;28;20036;-65
2022/04/19 07:39:14;;;;;;;12.05;2.35;;;18.00;54.00;;;;;;5076952;28;20032;-66
2022/04/19 07:41:46;;;;;;;7.80;2.20;;;18.30;53.70;;;;;;5084310;28;20107;-65
2022/04/19 07:44:15;;;;;;;6.32;1.88;;;18.50;53.30;;;;;;5082757;28;20888;-66
2022/04/19 07:46:42;;;;;;;7.13;1.42;;;18.80;52.50;;;;;;5071159;28;20066;-66
2022/04/19 07:49:08;;;;;;;3.63;1.00;;;19.10;51.00;;;;;;5071331;28;20519;-66
2022/04/19 07:51:35;;;;;;;5.28;1.48;;;19.40;49.00;;;;;;5081365;28;20040;-66
2022/04/19 07:54:01;;;;;;;5.63;1.10;;;19.80;47.40;;;;;;5077291;28;20047;-66
2022/04/19 07:56:27;;;;;;;4.30;0.88;;;20.10;45.50;;;;;;5077562;28;20072;-66
2022/04/19 07:58:53;;;;;;;7.28;1.17;;;20.40;44.50;;;;;;5068172;28;20079;-67
2022/04/19 08:01:19;;;;;;;7.38;1.40;;;21.00;43.20;;;;;;5072465;28;20035;-66
2022/04/19 08:03:45;;;;;;;5.60;0.98;;;22.00;40.90;;;;;;5076038;28;20032;-66
2022/04/19 08:06:11;;;;;;;6.65;1.00;;;23.00;38.20;;;;;;5082757;28;20028;-66
2022/04/19 08:08:38;;;;;;;3.88;1.20;;;24.00;34.90;;;;;;5080990;28;20167;-66
2022/04/19 08:11:04;;;;;;;3.92;1.10;;;25.00;32.90;;;;;;5071283;28;20032;-66
2022/04/19 08:13:30;;;;;;;5.60;1.00;;;25.90;30.90;;;;;;5067335;28;20020;-66
2022/04/19 08:15:56;;;;;;;3.38;1.00;;;26.60;29.40;;;;;;5080426;28;20076;-66
2022/04/19 08:18:22;;;;;;;5.57;0.93;;;27.60;27.90;;;;;;5087167;28;20044;-66
2022/04/19 08:20:50;;;;;;;5.25;1.20;;;28.30;26.60;;;;;;5087471;28;20119;-66
2022/04/19 08:23:16;;;;;;;4.93;1.52;;;28.60;25.60;;;;;;5086648;28;20446;-66
2022/04/19 08:25:45;;;;;;;4.90;0.93;;;28.70;24.90;;;;;;5071249;28;20020;-66
2022/04/19 08:28:10;;;;;;;5.97;1.00;;;28.80;24.30;;;;;;5076040;28;20128;-66
2022/04/19 08:30:36;;;;;;;5.63;1.00;;;28.10;25.00;;;;;;5074904;28;20135;-67
2022/04/19 08:33:02;;;;;;;5.00;0.80;;;26.80;27.40;;;;;;5082753;28;20103;-66
2022/04/19 08:35:28;;;;;;;5.75;1.15;;;26.00;27.90;;;;;;5083610;28;20147;-66
2022/04/19 08:37:54;;;;;;;4.93;1.10;;;27.70;26.00;;;;;;5090093;28;20035;-67
2022/04/19 08:40:20;;;;;;;6.55;1.60;;;29.10;23.80;;;;;;5079113;28;20020;-66
2022/04/19 08:42:47;;;;;;;5.07;1.10;;;29.60;22.60;;;;;;5075943;28;20028;-67
2022/04/19 08:45:15;;;;;;;4.60;1.00;;;29.20;22.60;;;;;;5081485;28;20036;-67
2022/04/19 08:47:45;;;;;;;5.13;0.80;;;27.80;24.00;;;;;;5086062;28;20035;-66
2022/04/19 08:50:14;;;;;;;3.25;0.75;;;27.90;23.40;;;;;;5086824;28;20043;-66
2022/04/19 08:52:40;;;;;;;4.30;0.73;;;27.50;23.20;;;;;;5084203;28;20957;-67
2022/04/19 08:57:53;;;;;;;5.57;1.13;;;25.50;25.60;;;;;;5073059;28;20036;-66
2022/04/19 09:00:23;;;;;;;5.38;0.80;;;24.00;28.30;;;;;;5075254;28;20487;-67
2022/04/19 09:02:54;;;;;;;4.68;0.88;;;22.90;29.70;;;;;;5074809;28;20028;-67
2022/04/19 09:05:23;;;;;;;3.28;0.70;;;23.10;29.90;;;;;;5074989;28;20028;-66
2022/04/19 09:07:52;;;;;;;3.22;0.80;;;23.20;30.80;;;;;;5069777;28;20082;-66
2022/04/19 09:10:27;;;;;;;4.77;1.00;;;22.70;30.80;;;;;;5074869;28;20045;-66
2022/04/19 09:13:10;;;;;;;5.00;1.10;;;22.40;30.90;;;;;;5082862;28;20168;-66
2022/04/19 09:15:40;;;;;;;5.78;0.95;;;22.20;31.10;;;;;;5075520;28;20044;-66
2022/04/19 09:18:33;;;;;;;;;;;22.30;32.50;;;;;;5081823;28;20502;-67
2022/04/19 09:21:01;;;;;;;6.82;1.00;;;22.30;32.00;;;;;;5086187;28;19957;-66
2022/04/19 09:23:32;;;;;;;6.82;0.80;;;22.50;31.60;;;;;;5083842;28;20391;-66
2022/04/19 09:26:06;;;;;;;3.40;0.80;;;22.60;31.60;;;;;;5073692;28;20021;-66
2022/04/19 09:28:34;;;;;;;4.63;0.98;;;22.60;31.50;;;;;;5070769;28;20129;-66
2022/04/19 09:31:01;;;;;;;5.90;1.10;;;22.50;31.70;;;;;;5072997;28;20024;-66
2022/04/19 09:33:28;;;;;;;3.70;0.80;;;22.60;32.20;;;;;;5083401;28;20031;-67
2022/04/19 09:35:54;;;;;;;3.35;0.90;;;22.70;31.70;;;;;;5080326;28;20038;-66
2022/04/19 09:38:36;;;;;;;4.15;1.00;;;22.70;32.10;;;;;;5077389;28;20023;-66
2022/04/19 09:41:03;;;;;;;4.20;1.00;;;22.30;32.60;;;;;;5087523;28;20112;-66
2022/04/19 09:43:29;;;;;;;2.60;0.82;;;22.10;32.90;;;;;;5087561;28;20024;-66
2022/04/19 09:46:02;;;;;;;5.63;1.17;;;22.20;32.70;;;;;;5074557;28;20039;-66
2022/04/19 09:48:29;;;;;;;6.30;1.10;;;22.00;33.20;;;;;;5085904;28;20406;-66
2022/04/19 09:50:57;;;;;;;2.92;0.75;;;21.60;34.10;;;;;;5085592;28;20060;-66
2022/04/19 09:53:26;;;;;;;5.45;2.08;;;21.40;33.80;;;;;;5084205;28;20021;-66
2022/04/19 09:55:54;;;;;;;4.93;0.90;;;21.10;33.50;;;;;;5073020;28;20054;-66
2022/04/19 09:58:20;;;;;;;6.88;1.00;;;20.90;33.50;;;;;;5069267;28;20056;-66
2022/04/19 10:00:48;;;;;;;6.00;1.05;;;20.70;33.50;;;;;;5083042;28;20046;-66
2022/04/19 10:08:46;;;;;;;3.80;0.82;;;21.50;33.40;;;;;;5080309;28;20055;-66
2022/04/19 10:11:13;;;;;;;4.95;0.88;;;21.80;32.30;;;;;;5076445;28;20051;-66
2022/04/19 10:13:40;;;;;;;5.32;0.80;;;21.90;31.30;;;;;;5084263;28;20044;-66
2022/04/19 10:16:11;;;;;;;5.18;0.80;;;21.80;31.20;;;;;;5075761;28;20071;-67
2022/04/19 10:18:38;;;;;;;3.10;0.80;;;21.50;31.50;;;;;;5084614;28;20067;-67
2022/04/19 10:21:07;;;;;;;3.38;0.80;;;21.20;32.00;;;;;;5077911;28;20482;-65
2022/04/19 10:23:38;;;;;;;3.60;0.80;;;20.90;32.40;;;;;;5085917;28;20034;-67
2022/04/19 10:26:14;;;;;;;6.88;1.13;;;20.90;32.80;;;;;;5085718;28;20032;-68
2022/04/19 10:28:41;;;;;;;3.67;0.80;;;21.40;32.00;;;;;;5087588;28;20024;-68
2022/04/19 10:31:09;;;;;;;3.17;0.80;;;21.50;32.20;;;;;;5079826;28;20040;-67
2022/04/19 10:33:40;;;;;;;4.43;0.80;;;21.30;31.10;;;;;;5082045;28;20475;-69
2022/04/19 10:36:18;;;;;;;2.72;0.63;;;21.30;31.20;;;;;;5084533;28;20057;-68
2022/04/19 10:38:46;;;;;;;4.40;0.70;;;21.60;31.10;;;;;;5081439;28;20028;-68
2022/04/19 10:41:44;;;;;;;1.77;0.50;;;22.10;30.00;;;;;;5077411;28;20024;-68
2022/04/19 10:44:35;;;;;;;4.35;0.75;;;22.30;29.70;;;;;;5075964;28;20103;-68
2022/04/19 10:47:12;;;;;;;4.00;0.80;;;22.00;29.60;;;;;;5084040;28;20031;-66
2022/04/19 10:50:07;;;;;;;3.60;0.88;;;21.70;30.00;;;;;;5083357;28;20151;-67
2022/04/19 10:52:36;;;;;;;5.18;0.90;;;21.50;31.10;;;;;;5080189;28;20044;-67
2022/04/19 10:55:11;;;;;;;5.60;1.08;;;21.90;31.50;;;;;;5079891;28;20075;-67
2022/04/19 11:00:29;;;;;;;3.45;0.70;;;21.90;31.90;;;;;;5079916;28;20557;-67
2022/04/19 11:03:00;;;;;;;3.20;0.80;;;22.00;31.30;;;;;;5074940;28;20029;-68
2022/04/19 11:05:44;;;;;;;5.03;0.80;;;22.50;30.50;;;;;;5082940;28;20047;-67
2022/04/19 11:08:25;;;;;;;2.45;0.80;;;23.10;29.90;;;;;;5075075;28;20016;-67
2022/04/19 11:10:58;;;;;;;6.03;1.10;;;23.70;29.00;;;;;;5077269;28;20096;-68
2022/04/19 11:13:27;;;;;;;3.58;0.75;;;24.20;28.50;;;;;;5082740;28;20111;-68
2022/04/19 11:16:01;;;;;;;2.47;0.70;;;24.60;27.50;;;;;;5084452;28;20494;-68
2022/04/19 11:18:29;;;;;;;2.58;0.65;;;25.00;26.50;;;;;;5084524;28;20035;-68
2022/04/19 11:21:03;;;;;;;3.33;0.80;;;25.10;26.20;;;;;;5075914;28;20072;-68
2022/04/19 11:23:40;;;;;;;8.02;1.00;;;25.50;26.20;;;;;;5077241;28;20027;-68
2022/04/19 11:26:08;;;;;;;4.88;1.02;;;25.40;25.50;;;;;;5081743;28;20453;-68
2022/04/19 11:28:34;;;;;;;3.40;0.88;;;25.10;25.40;;;;;;5077471;28;20033;-67
2022/04/19 11:31:00;;;;;;;3.03;0.65;;;24.80;25.50;;;;;;5085374;28;20043;-67
2022/04/19 11:33:34;;;;;;;2.72;0.80;;;24.60;25.20;;;;;;5083164;28;20511;-67
2022/04/19 11:36:10;;;;;;;4.78;0.88;;;24.30;25.90;;;;;;5080871;28;20494;-67
2022/04/19 11:38:44;;;;;;;5.20;0.80;;;24.20;25.80;;;;;;5077256;28;20107;-67
2022/04/19 11:46:44;;;;;;;4.97;0.88;;;25.00;26.10;;;;;;5083783;28;20043;-67
2022/04/19 11:49:23;;;;;;;8.18;1.25;;;25.40;26.30;;;;;;5072987;28;20020;-68
2022/04/19 11:52:20;;;;;;;5.28;0.93;;;25.20;27.40;;;;;;5087161;28;20445;-68
2022/04/19 11:54:45;;;;;;;5.57;1.05;;;24.80;26.90;;;;;;5087168;28;20048;-65
2022/04/19 11:57:12;;;;;;;3.15;0.75;;;24.40;26.90;;;;;;5080441;28;20028;-66
2022/04/19 11:59:42;;;;;;;3.17;0.70;;;24.40;26.50;;;;;;5082808;28;20036;-66
2022/04/19 12:02:17;;;;;;;3.22;0.70;;;24.80;26.20;;;;;;5079257;28;20032;-67
2022/04/19 12:05:02;;;;;;;4.78;1.00;;;25.30;26.00;;;;;;5084539;28;20376;-67
2022/04/19 12:07:28;;;;;;;4.78;0.90;;;25.80;24.90;;;;;;5085353;28;20028;-67
2022/04/19 12:09:58;;;;;;;4.80;0.90;;;26.40;24.80;;;;;;5083676;28;20056;-68
2022/04/19 12:12:26;;;;;;;3.65;0.70;;;26.90;24.10;;;;;;5086820;28;20020;-68
2022/04/19 12:14:53;;;;;;;6.75;0.80;;;27.50;23.20;;;;;;5082585;28;20570;-67
2022/04/19 12:17:20;;;;;;;11.75;0.95;;;27.40;22.60;;;;;;5074673;28;20120;-67
2022/04/19 12:19:46;;;;;;;5.07;0.63;;;27.00;22.50;;;;;;5083710;28;20029;-67
2022/04/19 12:22:23;;;;;;;5.10;0.60;;;26.20;22.80;;;;;;5074675;28;20516;-67
2022/04/19 12:24:58;;;;;;;6.03;0.90;;;25.90;23.30;;;;;;5075923;28;20040;-68
2022/04/19 12:27:33;;;;;;;2.63;0.65;;;26.10;23.30;;;;;;5077481;28;20028;-67
2022/04/19 12:30:11;;;;;;;2.65;0.70;;;26.70;22.80;;;;;;5076449;28;20047;-67
2022/04/19 12:32:54;;;;;;;2.95;0.70;;;27.30;22.40;;;;;;5079918;28;20043;-67
2022/04/19 12:35:37;;;;;;;3.85;0.60;;;27.80;21.30;;;;;;5086189;28;20032;-66
2022/04/19 12:38:18;;;;;;;5.53;1.08;;;27.30;21.70;;;;;;5085394;28;20119;-67
2022/04/19 12:40:46;;;;;;;4.28;0.70;;;27.40;22.00;;;;;;5087256;28;20123;-67
2022/04/19 12:43:14;;;;;;;5.63;1.02;;;28.20;21.20;;;;;;5083168;28;20027;-67
2022/04/19 12:45:41;;;;;;;3.22;0.70;;;28.90;20.40;;;;;;5075771;28;20043;-67
2022/04/19 12:48:21;;;;;;;7.28;0.77;;;29.60;19.50;;;;;;5087481;28;20024;-67
2022/04/19 12:50:47;;;;;;;3.85;0.77;;;29.80;19.80;;;;;;5096538;28;20016;-67
2022/04/19 12:53:23;;;;;;;3.42;0.90;;;28.60;21.00;;;;;;5085562;28;20046;-67
2022/04/19 12:56:04;;;;;;;4.13;0.85;;;27.30;22.40;;;;;;5075548;28;20031;-67
2022/04/19 12:58:30;;;;;;;6.07;0.77;;;26.40;23.40;;;;;;5072482;28;20047;-67
2022/04/19 13:00:58;;;;;;;4.95;0.88;;;27.10;22.10;;;;;;5083229;28;20038;-68
2022/04/19 13:03:24;;;;;;;4.30;0.80;;;28.70;20.70;;;;;;5077181;28;20086;-68
2022/04/19 13:14:02;;;;;;;4.00;0.80;;;28.00;21.80;;;;;;5080257;28;20108;-67
2022/04/19 13:16:28;;;;;;;4.05;0.80;;;26.70;22.90;;;;;;5083890;28;20131;-67
2022/04/19 13:18:53;;;;;;;4.35;1.60;;;27.70;21.80;;;;;;5082473;28;20068;-67
2022/04/19 13:21:19;;;;;;;5.03;1.73;;;29.50;20.90;;;;;;5085307;28;20024;-67
2022/04/19 13:23:45;;;;;;;3.28;0.70;;;30.90;20.50;;;;;;5079043;28;20032;-67
2022/04/19 13:26:11;;;;;;;5.00;0.80;;;32.10;19.10;;;;;;5084972;28;20097;-67
2022/04/19 13:28:37;;;;;;;4.40;0.80;;;33.10;18.20;;;;;;5078128;28;20521;-67
2022/04/19 13:31:03;;;;;;;6.40;0.90;;;33.90;17.50;;;;;;5087441;28;20089;-67
2022/04/19 13:33:31;;;;;;;4.00;0.70;;;34.50;16.80;;;;;;5085559;28;20031;-68
2022/04/19 13:35:57;;;;;;;3.38;0.70;;;34.90;16.20;;;;;;5076571;28;20563;-68
2022/04/19 13:38:24;;;;;;;4.78;0.70;;;35.40;16.10;;;;;;5087006;28;20103;-68